createdAt,value
2017-08-31T00:00:46.347Z,46.33
2017-08-31T00:01:46.325Z,46.62
2017-08-31T00:02:45.989Z,46.43
2017-08-31T00:03:45.983Z,46.43
2017-08-31T00:04:46.289Z,46.53
2017-08-31T00:05:46.281Z,47
2017-08-31T00:06:46.472Z,46.91
2017-08-31T00:07:45.945Z,46.98
2017-08-31T00:08:46.250Z,47.08
2017-08-31T00:09:45.922Z,46.98
2017-08-31T00:10:46.229Z,46.98
2017-08-31T00:11:46.224Z,46.72
2017-08-31T00:12:46.215Z,46.89
2017-08-31T00:13:46.204Z,46.31
2017-08-31T00:14:45.872Z,46.59
2017-08-31T00:15:45.865Z,46.89
2017-08-31T00:16:45.852Z,46.98
2017-08-31T00:17:46.199Z,46.98
2017-08-31T00:18:45.831Z,46.98
2017-08-31T00:19:45.822Z,46.79
2017-08-31T00:20:46.134Z,46.89
2017-08-31T00:21:46.124Z,46.98
2017-08-31T00:22:46.127Z,47.56
2017-08-31T00:23:46.110Z,46.98
2017-08-31T00:24:46.096Z,46.5
2017-08-31T00:25:46.085Z,46.69
2017-08-31T00:26:46.076Z,46.98
2017-08-31T00:27:46.072Z,46.69
2017-08-31T00:28:45.736Z,46.98
2017-08-31T00:29:46.043Z,46.89
2017-08-31T00:30:45.719Z,46.69
2017-08-31T00:31:46.025Z,46.59
2017-08-31T00:32:46.014Z,46.59
2017-08-31T00:33:45.686Z,46.98
2017-08-31T00:34:45.995Z,47.66
2017-08-31T00:35:46.036Z,47.08
2017-08-31T00:36:45.658Z,47.08
2017-08-31T00:37:45.671Z,47.27
2017-08-31T00:38:45.635Z,47.36
2017-08-31T00:39:45.944Z,47.27
2017-08-31T00:40:45.936Z,47.36
2017-08-31T00:41:45.608Z,47.27
2017-08-31T00:42:45.922Z,47.46
2017-08-31T00:43:45.584Z,47.36
2017-08-31T00:44:45.579Z,47.36
2017-08-31T00:45:45.566Z,47.2
2017-08-31T00:46:45.558Z,46.79
2017-08-31T00:47:45.867Z,47.36
2017-08-31T00:48:45.536Z,47.17
2017-08-31T00:49:45.846Z,47.56
2017-08-31T00:50:45.838Z,46.91
2017-08-31T00:51:45.507Z,47.75
2017-08-31T00:52:45.496Z,47.49
2017-08-31T00:53:45.808Z,47.58
2017-08-31T00:54:45.478Z,47.56
2017-08-31T00:55:45.468Z,47.39
2017-08-31T00:56:45.464Z,47.58
2017-08-31T00:57:45.447Z,47.2
2017-08-31T00:58:45.437Z,47.49
2017-08-31T00:59:45.752Z,47.2
2017-08-31T01:00:45.792Z,47.68
2017-08-31T01:01:45.411Z,47.39
2017-08-31T01:02:45.726Z,47.3
2017-08-31T01:03:45.713Z,47.39
2017-08-31T01:04:45.377Z,47.39
2017-08-31T01:05:45.370Z,47.68
2017-08-31T01:06:45.697Z,47.68
2017-08-31T01:07:45.681Z,48.25
2017-08-31T01:08:45.672Z,47.39
2017-08-31T01:09:45.339Z,47.77
2017-08-31T01:10:45.700Z,47.68
2017-08-31T01:11:45.313Z,47.58
2017-08-31T01:12:45.623Z,47.68
2017-08-31T01:13:45.289Z,47.77
2017-08-31T01:14:45.311Z,47.68
2017-08-31T01:15:45.593Z,48.35
2017-08-31T01:16:45.583Z,48.25
2017-08-31T01:17:45.251Z,49.12
2017-08-31T01:18:45.244Z,49.51
2017-08-31T01:19:45.556Z,50.37
2017-08-31T01:20:45.274Z,50.85
2017-08-31T01:21:45.556Z,50.54
2017-08-31T01:22:45.525Z,50.92
2017-08-31T01:23:45.523Z,50.54
2017-08-31T01:24:45.184Z,50.95
2017-08-31T01:25:45.492Z,51.23
2017-08-31T01:26:45.485Z,51.23
2017-08-31T01:27:45.154Z,51.62
2017-08-31T01:28:45.466Z,51.79
2017-08-31T01:29:45.135Z,50.63
2017-08-31T01:30:45.444Z,50.27
2017-08-31T01:31:45.439Z,50.66
2017-08-31T01:32:45.423Z,50.95
2017-08-31T01:33:45.097Z,51.23
2017-08-31T01:34:45.408Z,50.95
2017-08-31T01:35:45.403Z,51.33
2017-08-31T01:36:45.074Z,51.5
2017-08-31T01:37:45.378Z,51.72
2017-08-31T01:38:45.370Z,51.81
2017-08-31T01:39:45.359Z,51.14
2017-08-31T01:40:45.345Z,51.11
2017-08-31T01:41:45.019Z,50.63
2017-08-31T01:42:45.351Z,50.85
2017-08-31T01:43:45.324Z,50.37
2017-08-31T01:44:45.308Z,50.44
2017-08-31T01:45:45.300Z,50.92
2017-08-31T01:46:44.967Z,50.15
2017-08-31T01:47:44.960Z,50.25
2017-08-31T01:48:45.271Z,50.25
2017-08-31T01:49:45.263Z,50.05
2017-08-31T01:50:44.932Z,49.67
2017-08-31T01:51:45.242Z,49.38
2017-08-31T01:52:45.440Z,49.67
2017-08-31T01:53:44.900Z,49.67
2017-08-31T01:54:44.892Z,49
2017-08-31T01:55:44.879Z,48.52
2017-08-31T01:56:45.191Z,48.61
2017-08-31T01:57:45.179Z,48.23
2017-08-31T01:58:44.875Z,48.33
2017-08-31T01:59:44.842Z,49.77
2017-08-31T02:00:44.833Z,49.19
2017-08-31T02:01:45.145Z,49.87
2017-08-31T02:02:44.808Z,51.31
2017-08-31T02:03:44.803Z,50.73
2017-08-31T02:04:45.111Z,50.63
2017-08-31T02:05:44.785Z,51.11
2017-08-31T02:06:45.093Z,51.69
2017-08-31T02:07:45.083Z,51.98
2017-08-31T02:08:44.752Z,51.88
2017-08-31T02:09:45.062Z,51.95
2017-08-31T02:10:44.732Z,51.09
2017-08-31T02:11:44.723Z,51.57
2017-08-31T02:12:45.033Z,50.8
2017-08-31T02:13:45.023Z,50.8
2017-08-31T02:14:45.019Z,51.28
2017-08-31T02:15:45.010Z,51.37
2017-08-31T02:16:44.994Z,51.67
2017-08-31T02:17:44.987Z,51.86
2017-08-31T02:18:44.653Z,51.86
2017-08-31T02:19:44.967Z,51.86
2017-08-31T02:20:44.953Z,51.86
2017-08-31T02:21:44.944Z,51.37
2017-08-31T02:22:44.937Z,51.47
2017-08-31T02:23:44.924Z,50.13
2017-08-31T02:24:44.918Z,51.09
2017-08-31T02:25:44.582Z,50.99
2017-08-31T02:26:44.894Z,50.03
2017-08-31T02:27:44.882Z,50.23
2017-08-31T02:28:44.876Z,49.93
2017-08-31T02:29:44.542Z,51.18
2017-08-31T02:30:44.539Z,50.99
2017-08-31T02:31:44.525Z,51.95
2017-08-31T02:32:44.832Z,51.37
2017-08-31T02:33:44.828Z,51.37
2017-08-31T02:34:44.832Z,51.37
2017-08-31T02:35:44.806Z,51.57
2017-08-31T02:36:44.805Z,50.99
2017-08-31T02:37:44.784Z,51.47
2017-08-31T02:38:44.778Z,51.09
2017-08-31T02:39:44.771Z,51.95
2017-08-31T02:40:44.759Z,51.86
2017-08-31T02:41:44.430Z,53.3
2017-08-31T02:42:44.733Z,52.98
2017-08-31T02:43:44.725Z,52.43
2017-08-31T02:44:44.929Z,52.81
2017-08-31T02:45:44.386Z,52.53
2017-08-31T02:46:44.705Z,53.17
2017-08-31T02:47:44.690Z,53.27
2017-08-31T02:48:44.681Z,53.56
2017-08-31T02:49:44.666Z,53.17
2017-08-31T02:50:44.332Z,52.79
2017-08-31T02:51:44.644Z,52.79
2017-08-31T02:52:44.646Z,52.69
2017-08-31T02:53:44.623Z,52.4
2017-08-31T02:54:44.291Z,52.12
2017-08-31T02:55:44.600Z,51.73
2017-08-31T02:56:44.275Z,51.64
2017-08-31T02:57:44.262Z,51.16
2017-08-31T02:58:44.574Z,51.06
2017-08-31T02:59:44.571Z,50.87
2017-08-31T03:00:44.234Z,51.06
2017-08-31T03:01:44.222Z,52.31
2017-08-31T03:02:44.530Z,51.45
2017-08-31T03:03:44.522Z,51.45
2017-08-31T03:04:44.523Z,50.94
2017-08-31T03:05:44.189Z,49.91
2017-08-31T03:06:44.172Z,49.98
2017-08-31T03:07:44.480Z,49.88
2017-08-31T03:08:44.150Z,50.08
2017-08-31T03:09:44.140Z,50.46
2017-08-31T03:10:44.453Z,50.46
2017-08-31T03:11:44.440Z,49.98
2017-08-31T03:12:44.426Z,49.6
2017-08-31T03:13:44.097Z,48.74
2017-08-31T03:14:44.090Z,49.41
2017-08-31T03:15:44.405Z,49.5
2017-08-31T03:16:44.385Z,49.69
2017-08-31T03:17:44.056Z,49.98
2017-08-31T03:18:44.364Z,50.75
2017-08-31T03:19:44.034Z,50.27
2017-08-31T03:20:44.026Z,49.88
2017-08-31T03:21:44.013Z,49.69
2017-08-31T03:22:44.004Z,49.69
2017-08-31T03:23:44.312Z,50.37
2017-08-31T03:24:44.304Z,50.46
2017-08-31T03:25:44.296Z,50.24
2017-08-31T03:26:43.961Z,49.96
2017-08-31T03:27:43.949Z,50.73
2017-08-31T03:28:44.263Z,50.73
2017-08-31T03:29:43.930Z,51.01
2017-08-31T03:30:43.936Z,51.1
2017-08-31T03:31:44.227Z,51.49
2017-08-31T03:32:43.901Z,50.92
2017-08-31T03:33:44.206Z,51.1
2017-08-31T03:34:44.199Z,50.63
2017-08-31T03:35:44.186Z,50.34
2017-08-31T03:36:43.857Z,49.67
2017-08-31T03:37:44.164Z,49.67
2017-08-31T03:38:44.154Z,49.48
2017-08-31T03:39:43.822Z,49.76
2017-08-31T03:40:43.811Z,49.96
2017-08-31T03:41:44.123Z,50.43
2017-08-31T03:42:44.107Z,50.63
2017-08-31T03:43:44.101Z,50.34
2017-08-31T03:44:44.090Z,51.1
2017-08-31T03:45:44.078Z,50.92
2017-08-31T03:46:44.068Z,51.4
2017-08-31T03:47:43.736Z,51.2
2017-08-31T03:48:44.049Z,51.59
2017-08-31T03:49:43.714Z,51.49
2017-08-31T03:50:43.705Z,51.49
2017-08-31T03:51:43.693Z,51.75
2017-08-31T03:52:44.053Z,51.28
2017-08-31T03:53:43.989Z,51.59
2017-08-31T03:54:43.658Z,51.18
2017-08-31T03:55:43.969Z,50.6
2017-08-31T03:56:43.956Z,50.34
2017-08-31T03:57:43.947Z,50.92
2017-08-31T03:58:43.613Z,51.3
2017-08-31T03:59:43.604Z,51.46
2017-08-31T04:00:43.912Z,51.56
2017-08-31T04:01:43.937Z,52.23
2017-08-31T04:02:43.576Z,52.62
2017-08-31T04:03:43.932Z,51.75
2017-08-31T04:04:43.868Z,51.85
2017-08-31T04:05:43.538Z,51.85
2017-08-31T04:06:43.531Z,52.14
2017-08-31T04:23:01.062Z,55.49
2017-08-31T04:24:00.754Z,55.3
2017-08-31T04:25:01.038Z,54.82
2017-08-31T04:26:00.702Z,55.11
2017-08-31T04:27:00.696Z,55.11
2017-08-31T04:28:00.997Z,55.49
2017-08-31T04:29:00.989Z,55.3
2017-08-31T04:30:00.978Z,55.11
2017-08-31T04:31:00.968Z,54.72
2017-08-31T04:32:00.960Z,54.82
2017-08-31T04:33:00.947Z,55.78
2017-08-31T04:34:00.621Z,55.4
2017-08-31T04:35:00.599Z,55.78
2017-08-31T04:36:00.600Z,55.21
2017-08-31T04:37:00.580Z,55.78
2017-08-31T04:38:00.890Z,55.75
2017-08-31T04:39:00.558Z,56.13
2017-08-31T04:40:00.865Z,57.31
2017-08-31T04:41:00.855Z,56.61
2017-08-31T04:42:00.521Z,56.64
2017-08-31T04:43:00.883Z,57.6
2017-08-31T04:44:00.824Z,57.38
2017-08-31T04:45:00.814Z,57.57
2017-08-31T04:46:00.801Z,57.19
2017-08-31T04:47:00.464Z,56.99
2017-08-31T04:48:00.505Z,56.13
2017-08-31T04:49:00.449Z,56.23
2017-08-31T04:50:00.458Z,56.32
2017-08-31T04:51:00.423Z,55.85
2017-08-31T04:52:00.728Z,55.75
2017-08-31T04:53:00.773Z,55.18
2017-08-31T04:54:00.388Z,54.12
2017-08-31T04:55:00.375Z,54.6
2017-08-31T04:56:00.685Z,55.27
2017-08-31T04:57:00.354Z,55.08
2017-08-31T04:58:00.342Z,54.41
2017-08-31T04:59:00.330Z,54.7
2017-08-31T05:00:00.320Z,54.12
2017-08-31T05:01:00.633Z,54.5
2017-08-31T05:02:00.620Z,55.36
2017-08-31T05:03:00.334Z,55.36
2017-08-31T05:04:00.285Z,55.65
2017-08-31T05:05:00.595Z,55.65
2017-08-31T05:06:00.259Z,55.27
2017-08-31T05:07:00.565Z,55.56
2017-08-31T05:08:00.228Z,55.27
2017-08-31T05:09:00.215Z,55.65
2017-08-31T05:10:00.526Z,55.65
2017-08-31T05:11:00.196Z,55.36
2017-08-31T05:12:00.182Z,55.18
2017-08-31T05:13:00.546Z,55.27
2017-08-31T05:14:00.163Z,55.36
2017-08-31T05:15:00.146Z,54.5
2017-08-31T05:16:00.458Z,54.32
2017-08-31T05:17:00.447Z,54.6
2017-08-31T05:18:00.115Z,53.74
2017-08-31T05:19:00.429Z,54.79
2017-08-31T05:20:00.093Z,54.41
2017-08-31T05:21:00.080Z,54.41
2017-08-31T05:22:00.388Z,53.26
2017-08-31T05:23:00.055Z,53.83
2017-08-31T05:24:00.367Z,53.16
2017-08-31T05:25:00.032Z,52.97
2017-08-31T05:26:00.344Z,52.2
2017-08-31T05:27:00.333Z,51.82
2017-08-31T05:27:59.999Z,51.82
2017-08-31T05:28:59.988Z,51.92
2017-08-31T05:30:00.295Z,51.44
2017-08-31T05:30:59.964Z,51.34
2017-08-31T05:31:59.952Z,51.54
2017-08-31T05:33:00.261Z,51.63
2017-08-31T05:34:00.250Z,51.51
2017-08-31T05:35:00.242Z,51.03
2017-08-31T05:36:00.230Z,51.22
2017-08-31T05:36:59.896Z,51.13
2017-08-31T05:38:00.209Z,51.03
2017-08-31T05:38:59.871Z,51.22
2017-08-31T05:40:00.178Z,51.03
2017-08-31T05:41:00.165Z,51.03
2017-08-31T05:41:59.835Z,50.56
2017-08-31T05:43:00.149Z,50.74
2017-08-31T05:43:59.821Z,50.46
2017-08-31T05:44:59.800Z,50.65
2017-08-31T05:46:00.113Z,51.22
2017-08-31T05:46:59.777Z,50.74
2017-08-31T05:47:59.769Z,50.46
2017-08-31T05:48:59.753Z,50.65
2017-08-31T05:49:59.741Z,50.65
2017-08-31T05:51:00.056Z,50.07
2017-08-31T05:52:00.040Z,50.46
2017-08-31T05:53:00.229Z,50.56
2017-08-31T05:53:59.692Z,50.65
2017-08-31T05:55:00.011Z,50.84
2017-08-31T05:55:59.992Z,50.74
2017-08-31T05:56:59.658Z,50.46
2017-08-31T05:57:59.648Z,50.93
2017-08-31T05:58:59.637Z,50.36
2017-08-31T05:59:59.946Z,50.65
2017-08-31T06:00:59.612Z,50.74
2017-08-31T06:01:59.599Z,51.03
2017-08-31T06:02:59.914Z,51.03
2017-08-31T06:03:59.902Z,51.03
2017-08-31T06:04:59.565Z,51.51
2017-08-31T06:05:59.552Z,51.32
2017-08-31T06:06:59.541Z,51.22
2017-08-31T06:07:59.858Z,51.42
2017-08-31T06:08:59.566Z,52.09
2017-08-31T06:09:59.824Z,51.7
2017-08-31T06:10:59.491Z,52.18
2017-08-31T06:11:59.485Z,53.52
2017-08-31T06:12:59.794Z,53.33
2017-08-31T06:13:59.507Z,53.33
2017-08-31T06:14:59.443Z,54
2017-08-31T06:15:59.766Z,54.28
2017-08-31T06:16:59.423Z,55.05
2017-08-31T06:17:59.407Z,55.34
2017-08-31T06:18:59.716Z,54.38
2017-08-31T06:19:59.386Z,53.81
2017-08-31T06:20:59.694Z,54.1
2017-08-31T06:21:59.679Z,54.28
2017-08-31T06:22:59.678Z,53.71
2017-08-31T06:23:59.666Z,53.52
2017-08-31T06:24:59.646Z,53.42
2017-08-31T06:25:59.633Z,52.66
2017-08-31T06:26:59.625Z,52.85
2017-08-31T06:27:59.617Z,53.04
2017-08-31T06:28:59.326Z,52.75
2017-08-31T06:29:59.265Z,52.28
2017-08-31T06:30:59.254Z,52.28
2017-08-31T06:31:59.247Z,52.18
2017-08-31T06:32:59.238Z,52.09
2017-08-31T06:33:59.537Z,52.18
2017-08-31T06:34:59.531Z,51.61
2017-08-31T06:35:59.517Z,51.48
2017-08-31T06:36:59.185Z,51.51
2017-08-31T06:37:59.491Z,50.93
2017-08-31T06:38:59.483Z,51.7
2017-08-31T06:39:59.466Z,51.51
2017-08-31T06:40:59.142Z,51.48
2017-08-31T06:41:59.119Z,51.77
2017-08-31T06:42:59.109Z,51.51
2017-08-31T06:43:59.095Z,52.09
2017-08-31T06:44:59.083Z,52.15
2017-08-31T06:45:59.397Z,51.68
2017-08-31T06:46:59.386Z,51.87
2017-08-31T06:47:59.048Z,51.97
2017-08-31T06:48:59.041Z,51.58
2017-08-31T06:49:59.027Z,52.15
2017-08-31T06:50:59.012Z,52.06
2017-08-31T06:51:59.321Z,52.34
2017-08-31T06:52:59.189Z,52.25
2017-08-31T06:53:59.297Z,52.37
2017-08-31T06:54:58.961Z,51.79
2017-08-31T06:55:59.273Z,52.37
2017-08-31T06:56:59.261Z,51.68
2017-08-31T06:57:58.925Z,53.02
2017-08-31T06:58:58.914Z,52.92
2017-08-31T06:59:58.904Z,53.02
2017-08-31T07:00:59.220Z,53.02
2017-08-31T07:01:58.878Z,53.2
2017-08-31T07:02:58.868Z,52.83
2017-08-31T07:03:59.176Z,52.85
2017-08-31T07:04:59.164Z,53.49
2017-08-31T07:05:59.150Z,53.4
2017-08-31T07:06:59.141Z,53.49
2017-08-31T07:07:58.808Z,53.2
2017-08-31T07:08:58.794Z,53.3
2017-08-31T07:09:59.102Z,54.07
2017-08-31T07:10:58.770Z,54.26
2017-08-31T07:11:59.080Z,53.2
2017-08-31T07:12:59.070Z,54.07
2017-08-31T07:13:58.733Z,54.45
2017-08-31T07:14:59.051Z,54.26
2017-08-31T07:15:59.032Z,53.88
2017-08-31T07:16:59.021Z,53.97
2017-08-31T07:17:59.006Z,53.78
2017-08-31T07:18:58.995Z,53.3
2017-08-31T07:19:58.663Z,53.88
2017-08-31T07:20:58.650Z,53.2
2017-08-31T07:21:58.960Z,53.02
2017-08-31T07:22:58.624Z,53.04
2017-08-31T07:23:58.943Z,53.04
2017-08-31T07:24:58.606Z,53.42
2017-08-31T07:25:58.591Z,54.26
2017-08-31T07:26:58.897Z,53.59
2017-08-31T07:27:58.568Z,54.1
2017-08-31T07:28:58.552Z,53.91
2017-08-31T07:29:58.543Z,55.05
2017-08-31T07:30:58.532Z,54.74
2017-08-31T07:31:58.838Z,55.41
2017-08-31T07:32:58.508Z,54.77
2017-08-31T07:33:58.812Z,54.45
2017-08-31T07:34:58.802Z,54.38
2017-08-31T07:35:58.789Z,54.19
2017-08-31T07:36:58.459Z,54.67
2017-08-31T07:37:58.444Z,54.67
2017-08-31T07:38:58.755Z,54.67
2017-08-31T07:39:58.742Z,54.38
2017-08-31T07:40:58.411Z,53.23
2017-08-31T07:41:58.397Z,54.28
2017-08-31T07:42:58.383Z,53.62
2017-08-31T07:43:58.693Z,54.48
2017-08-31T07:44:58.685Z,54.48
2017-08-31T07:45:58.670Z,55.34
2017-08-31T07:46:58.338Z,54.86
2017-08-31T07:47:58.650Z,54.67
2017-08-31T07:48:58.636Z,55.34
2017-08-31T07:49:58.302Z,56.68
2017-08-31T07:50:58.617Z,57.16
2017-08-31T07:51:58.281Z,56.59
2017-08-31T07:52:58.266Z,57.06
2017-08-31T07:53:58.579Z,56.59
2017-08-31T07:54:58.246Z,56.04
2017-08-31T07:55:58.553Z,57.57
2017-08-31T07:56:58.543Z,58.53
2017-08-31T07:57:58.209Z,58.62
2017-08-31T07:58:58.198Z,58.62
2017-08-31T07:59:58.505Z,58.44
2017-08-31T08:00:58.495Z,57.67
2017-08-31T08:01:58.164Z,56.9
2017-08-31T08:02:58.150Z,58.44
2017-08-31T08:03:58.139Z,58.34
2017-08-31T08:04:58.449Z,58.15
2017-08-31T08:05:58.442Z,58.44
2017-08-31T08:06:58.426Z,59.3
2017-08-31T08:07:58.410Z,61.11
2017-08-31T08:08:58.081Z,60.73
2017-08-31T08:09:58.094Z,60.64
2017-08-31T08:10:58.383Z,61.98
2017-08-31T08:11:58.047Z,62.36
2017-08-31T08:12:58.037Z,61.11
2017-08-31T08:13:58.348Z,61.21
2017-08-31T08:14:58.010Z,61.4
2017-08-31T08:15:58.004Z,62.07
2017-08-31T08:16:58.195Z,61.88
2017-08-31T08:17:57.978Z,62.55
2017-08-31T08:18:58.289Z,63.03
2017-08-31T08:19:58.281Z,62.65
2017-08-31T08:20:58.264Z,61.4
2017-08-31T08:21:58.249Z,61.69
2017-08-31T08:22:58.253Z,62.07
2017-08-31T08:23:58.232Z,63.89
2017-08-31T08:24:57.910Z,63.7
2017-08-31T08:25:57.894Z,65.52
2017-08-31T08:26:58.202Z,64.18
2017-08-31T08:27:57.869Z,63.7
2017-08-31T08:28:57.855Z,64.76
2017-08-31T08:29:58.161Z,65.05
2017-08-31T08:30:57.829Z,63.6
2017-08-31T08:31:57.819Z,63.89
2017-08-31T08:32:57.811Z,65.14
2017-08-31T08:33:58.118Z,64.85
2017-08-31T08:34:57.837Z,63.13
2017-08-31T08:35:57.771Z,61.98
2017-08-31T08:36:58.085Z,63.32
2017-08-31T08:37:58.117Z,64.37
2017-08-31T08:38:58.063Z,65.42
2017-08-31T08:39:57.726Z,66
2017-08-31T08:40:58.037Z,67.15
2017-08-31T08:41:57.706Z,67.05
2017-08-31T08:42:58.013Z,67.72
2017-08-31T08:43:57.682Z,67.44
2017-08-31T08:44:57.991Z,66.19
2017-08-31T08:45:57.985Z,66.86
2017-08-31T08:46:57.657Z,65.91
2017-08-31T08:47:57.642Z,64.95
2017-08-31T08:48:57.626Z,64.37
2017-08-31T08:49:57.620Z,66.58
2017-08-31T08:50:57.937Z,69.07
2017-08-31T08:51:57.589Z,70.92
2017-08-31T08:52:57.900Z,71.88
2017-08-31T08:53:57.888Z,72.07
2017-08-31T08:54:57.883Z,70.44
2017-08-31T08:55:57.872Z,72.84
2017-08-31T08:56:57.859Z,73.41
2017-08-31T08:57:57.842Z,74.37
2017-08-31T08:58:57.837Z,73.7
2017-08-31T08:59:57.502Z,76.29
2017-08-31T09:00:57.813Z,72.07
2017-08-31T09:01:57.481Z,74.18
2017-08-31T09:02:57.803Z,76.39
2017-08-31T09:03:57.784Z,75.43
2017-08-31T09:04:57.469Z,76.86
2017-08-31T09:05:57.756Z,75.33
2017-08-31T09:06:57.748Z,75.81
2017-08-31T09:07:57.419Z,74.37
2017-08-31T09:08:57.728Z,73.32
2017-08-31T09:09:57.402Z,76.9
2017-08-31T09:10:57.710Z,78.15
2017-08-31T09:11:57.693Z,81.02
2017-08-31T09:12:57.361Z,81.51
2017-08-31T09:13:57.389Z,83
2017-08-31T09:14:57.863Z,82.08
2017-08-31T09:15:57.657Z,84.63
2017-08-31T09:16:57.641Z,84.34
2017-08-31T09:17:57.309Z,85.11
2017-08-31T09:18:57.299Z,81.46
2017-08-31T09:19:57.288Z,81.85
2017-08-31T09:20:57.278Z,79.16
2017-08-31T09:21:57.587Z,78.97
2017-08-31T09:22:57.580Z,79.74
2017-08-31T09:23:57.293Z,79.93
2017-08-31T09:24:57.235Z,78.97
2017-08-31T09:25:57.223Z,79.16
2017-08-31T09:26:57.211Z,79.36
2017-08-31T09:27:57.202Z,77.92
2017-08-31T09:28:57.197Z,76.96
2017-08-31T09:29:57.183Z,76.57
2017-08-31T09:30:57.512Z,77.73
2017-08-31T09:31:57.161Z,76.96
2017-08-31T09:32:57.471Z,74.95
2017-08-31T09:33:57.146Z,73.32
2017-08-31T09:34:57.126Z,72.94
2017-08-31T09:35:57.468Z,72.84
2017-08-31T09:36:57.435Z,72.55
2017-08-31T09:37:57.092Z,72.17
2017-08-31T09:38:57.460Z,71.69
2017-08-31T09:39:57.084Z,72.74
2017-08-31T09:40:57.383Z,72.07
2017-08-31T09:41:57.372Z,70.64
2017-08-31T09:42:57.361Z,69.29
2017-08-31T09:43:57.349Z,69.96
2017-08-31T09:44:57.345Z,69.58
2017-08-31T09:45:57.073Z,70.83
2017-08-31T09:46:57.319Z,73.09
2017-08-31T09:47:56.989Z,75.01
2017-08-31T09:48:56.977Z,73.76
2017-08-31T09:49:56.965Z,74.33
2017-08-31T09:50:56.953Z,71.66
2017-08-31T09:51:57.266Z,74.24
2017-08-31T09:52:57.248Z,71.66
2017-08-31T09:53:56.919Z,72.71
2017-08-31T09:54:57.228Z,72.71
2017-08-31T09:55:57.239Z,69.54
2017-08-31T09:56:57.212Z,68.4
2017-08-31T09:57:57.202Z,70.98
2017-08-31T09:58:56.870Z,67.76
2017-08-31T09:59:57.175Z,65.65
2017-08-31T10:00:57.169Z,66.13
2017-08-31T10:01:57.154Z,68.81
2017-08-31T10:02:57.141Z,71.78
2017-08-31T10:03:57.139Z,74.51
2017-08-31T10:04:56.801Z,72.88
2017-08-31T10:05:56.790Z,73.07
2017-08-31T10:06:57.150Z,72.2
2017-08-31T10:07:57.291Z,71.92
2017-08-31T10:08:56.761Z,72.78
2017-08-31T10:09:56.754Z,72.97
2017-08-31T10:10:57.061Z,77.67
2017-08-31T10:11:57.048Z,79.68
2017-08-31T10:12:56.731Z,78.34
2017-08-31T10:13:56.714Z,82.18
2017-08-31T10:14:56.700Z,83.52
2017-08-31T10:15:56.741Z,81.7
2017-08-31T10:16:57.049Z,82.65
2017-08-31T10:17:56.669Z,82.85
2017-08-31T10:18:56.660Z,83.71
2017-08-31T10:19:57.011Z,80.55
2017-08-31T10:20:56.961Z,78.44
2017-08-31T10:21:56.632Z,81.51
2017-08-31T10:22:56.624Z,83.09
2017-08-31T10:23:56.611Z,82.52
2017-08-31T10:24:56.934Z,82.52
2017-08-31T10:25:56.592Z,78.78
2017-08-31T10:26:56.602Z,79.07
2017-08-31T10:27:56.892Z,84.91
2017-08-31T10:28:56.559Z,79.93
2017-08-31T10:29:56.554Z,80.32
2017-08-31T10:30:56.542Z,80.03
2017-08-31T10:31:56.849Z,80.51
2017-08-31T10:32:56.520Z,81.56
2017-08-31T10:33:56.832Z,85.92
2017-08-31T10:34:56.500Z,90.61
2017-08-31T10:35:56.488Z,88.31
2017-08-31T10:36:56.799Z,87.84
2017-08-31T10:37:56.799Z,86.88
2017-08-31T10:38:56.458Z,87.16
2017-08-31T10:39:56.449Z,86.97
2017-08-31T10:40:56.441Z,81.7
2017-08-31T10:41:56.773Z,89.47
2017-08-31T10:42:56.756Z,89.75
2017-08-31T10:43:56.410Z,88.7
2017-08-31T10:44:56.401Z,91.86
2017-08-31T10:45:56.712Z,90.71
2017-08-31T10:46:56.382Z,87.16
2017-08-31T10:47:56.691Z,92.63
2017-08-31T10:48:56.358Z,89.18
2017-08-31T10:49:56.670Z,90.85
2017-08-31T10:50:56.339Z,90.75
2017-08-31T10:51:56.331Z,89.41
2017-08-31T10:52:56.645Z,89.99
2017-08-31T10:53:56.319Z,98.33
2017-08-31T10:54:56.304Z,96.13
2017-08-31T10:55:56.612Z,92.1
2017-08-31T10:56:56.608Z,97.09
2017-08-31T10:57:56.278Z,97.47
2017-08-31T10:58:56.581Z,95.46
2017-08-31T10:59:56.574Z,97.91
2017-08-31T11:00:56.246Z,99.99
2017-08-31T11:01:56.557Z,97.66
2017-08-31T11:02:56.224Z,98.38
2017-08-31T11:03:56.539Z,99.99
2017-08-31T11:04:56.216Z,97.61
2017-08-31T11:05:56.522Z,99.49
2017-08-31T11:06:56.509Z,99.99
2017-08-31T11:07:56.190Z,99.99
2017-08-31T11:08:56.176Z,99.99
2017-08-31T11:09:56.538Z,99.99
2017-08-31T11:10:56.156Z,99.99
2017-08-31T11:11:56.466Z,99.99
2017-08-31T11:12:56.141Z,99.15
2017-08-31T11:13:56.475Z,97.42
2017-08-31T11:14:56.121Z,99.99
2017-08-31T11:15:56.435Z,99.99
2017-08-31T11:16:56.110Z,97.81
2017-08-31T11:17:56.415Z,99.99
2017-08-31T11:18:56.408Z,98.91
2017-08-31T11:19:56.426Z,99.29
2017-08-31T11:20:56.400Z,98.82
2017-08-31T11:21:56.065Z,99.99
2017-08-31T11:22:56.152Z,98.24
2017-08-31T11:23:56.047Z,99.1
2017-08-31T11:24:56.038Z,99.99
2017-08-31T11:25:56.033Z,97.95
2017-08-31T11:26:56.017Z,96.66
2017-08-31T11:27:56.042Z,94.35
2017-08-31T11:28:56.454Z,99.34
2017-08-31T11:29:56.557Z,99.99
2017-08-31T11:30:56.394Z,99.99
2017-08-31T11:31:56.389Z,99.99
2017-08-31T11:32:56.446Z,99.99
2017-08-31T11:33:56.050Z,99.99
2017-08-31T11:34:56.538Z,99.99
2017-08-31T11:35:56.012Z,99.99
2017-08-31T11:36:56.411Z,99.99
2017-08-31T11:37:55.926Z,99.99
2017-08-31T11:38:56.234Z,99.99
2017-08-31T11:39:56.229Z,99.99
2017-08-31T11:40:56.222Z,99.99
2017-08-31T11:41:55.894Z,99.99
2017-08-31T11:42:56.202Z,99.99
2017-08-31T11:43:55.904Z,99.99
2017-08-31T11:44:55.867Z,99.99
2017-08-31T11:45:56.206Z,99.99
2017-08-31T11:46:55.851Z,99.99
2017-08-31T11:47:55.841Z,99.99
2017-08-31T11:48:56.154Z,99.99
2017-08-31T11:49:55.823Z,99.99
2017-08-31T11:50:56.134Z,99.99
2017-08-31T11:51:55.805Z,99.99
2017-08-31T11:52:56.117Z,99.99
2017-08-31T11:53:55.788Z,99.99
2017-08-31T11:54:56.100Z,99.99
2017-08-31T11:55:55.774Z,99.99
2017-08-31T11:56:56.083Z,99.99
2017-08-31T11:57:55.753Z,99.99
2017-08-31T11:58:56.071Z,99.99
2017-08-31T11:59:55.732Z,99.99
2017-08-31T12:00:56.049Z,99.99
2017-08-31T12:01:56.041Z,99.99
2017-08-31T12:02:56.033Z,99.99
2017-08-31T12:03:56.021Z,99.99
2017-08-31T12:04:56.011Z,99.99
2017-08-31T12:05:55.683Z,99.99
2017-08-31T12:06:55.995Z,99.99
2017-08-31T12:07:55.867Z,99.99
2017-08-31T12:08:55.977Z,99.99
2017-08-31T12:09:55.648Z,99.99
2017-08-31T12:10:55.967Z,99.99
2017-08-31T12:11:55.961Z,99.99
2017-08-31T12:12:55.945Z,99.99
2017-08-31T12:13:55.617Z,99.99
2017-08-31T12:14:55.610Z,99.99
2017-08-31T12:15:55.600Z,99.99
2017-08-31T12:16:55.918Z,99.99
2017-08-31T12:17:55.904Z,99.99
2017-08-31T12:18:55.901Z,99.99
2017-08-31T12:19:55.904Z,99.99
2017-08-31T12:20:55.566Z,99.99
2017-08-31T12:21:55.883Z,99.99
2017-08-31T12:22:55.551Z,99.99
2017-08-31T12:23:55.549Z,99.99
2017-08-31T12:24:55.862Z,99.99
2017-08-31T12:25:55.857Z,99.99
2017-08-31T12:26:55.528Z,99.99
2017-08-31T12:27:55.552Z,99.99
2017-08-31T12:28:55.520Z,99.99
2017-08-31T12:29:55.832Z,99.99
2017-08-31T12:30:55.827Z,99.99
2017-08-31T12:31:55.823Z,99.99
2017-08-31T12:32:55.496Z,99.99
2017-08-31T12:33:55.807Z,99.99
2017-08-31T12:34:55.803Z,99.99
2017-08-31T12:35:55.476Z,99.99
2017-08-31T12:36:55.793Z,99.99
2017-08-31T12:37:55.787Z,99.99
2017-08-31T12:38:55.779Z,99.99
2017-08-31T12:39:55.774Z,99.99
2017-08-31T12:40:55.771Z,99.99
2017-08-31T12:41:55.440Z,99.99
2017-08-31T12:42:55.807Z,99.99
2017-08-31T12:43:55.750Z,99.99
2017-08-31T12:44:55.746Z,99.99
2017-08-31T12:45:55.414Z,99.99
2017-08-31T12:46:55.411Z,99.99
2017-08-31T12:47:55.724Z,99.99
2017-08-31T12:48:55.720Z,99.99
2017-08-31T12:49:55.409Z,99.99
2017-08-31T12:50:55.705Z,99.99
2017-08-31T12:51:55.388Z,99.99
2017-08-31T12:52:55.692Z,99.99
2017-08-31T12:53:55.370Z,99.99
2017-08-31T12:54:55.680Z,99.99
2017-08-31T12:55:55.355Z,99.99
2017-08-31T12:56:55.683Z,99.99
2017-08-31T12:57:55.661Z,99.99
2017-08-31T12:58:55.653Z,99.99
2017-08-31T12:59:55.647Z,99.99
2017-08-31T13:00:55.643Z,99.99
2017-08-31T13:01:55.360Z,99.99
2017-08-31T13:02:55.302Z,99.99
2017-08-31T13:03:55.667Z,99.99
2017-08-31T13:04:55.288Z,99.99
2017-08-31T13:05:55.604Z,99.99
2017-08-31T13:06:55.274Z,99.99
2017-08-31T13:07:55.617Z,99.99
2017-08-31T13:08:55.590Z,99.99
2017-08-31T13:09:55.253Z,99.99